sensor_id;sensor_type;location;lat;lon;timestamp;temperature;humidity
4518;DHT22;2271;49.464;11.070;2023-07-16T00:00:47;23.50;99.90
4518;DHT22;2271;49.464;11.070;2023-07-16T00:03:15;23.50;99.90
4518;DHT22;2271;49.464;11.070;2023-07-16T00:05:42;23.50;99.90
4518;DHT22;2271;49.464;11.070;2023-07-16T00:08:07;23.70;99.90
4518;DHT22;2271;49.464;11.070;2023-07-16T00:10:37;23.70;99.90
4518;DHT22;2271;49.464;11.070;2023-07-16T00:13:03;23.70;99.90
4518;DHT22;2271;49.464;11.070;2023-07-16T00:15:30;23.70;99.90
4518;DHT22;2271;49.464;11.070;2023-07-16T00:17:55;23.70;99.90
4518;DHT22;2271;49.464;11.070;2023-07-16T00:20:21;23.40;99.90
4518;DHT22;2271;49.464;11.070;2023-07-16T00:22:49;23.50;99.90
4518;DHT22;2271;49.464;11.070;2023-07-16T00:25:15;23.50;99.90
4518;DHT22;2271;49.464;11.070;2023-07-16T00:27:41;23.50;99.90
4518;DHT22;2271;49.464;11.070;2023-07-16T00:30:07;23.50;99.90
4518;DHT22;2271;49.464;11.070;2023-07-16T00:32:33;23.50;99.90
4518;DHT22;2271;49.464;11.070;2023-07-16T00:35:00;23.50;99.90
4518;DHT22;2271;49.464;11.070;2023-07-16T00:37:26;23.40;99.90
4518;DHT22;2271;49.464;11.070;2023-07-16T00:39:52;23.40;99.90
4518;DHT22;2271;49.464;11.070;2023-07-16T00:42:18;23.40;99.90
4518;DHT22;2271;49.464;11.070;2023-07-16T00:44:43;23.50;99.90
4518;DHT22;2271;49.464;11.070;2023-07-16T00:47:09;23.50;99.90
4518;DHT22;2271;49.464;11.070;2023-07-16T00:49:36;23.60;99.90
4518;DHT22;2271;49.464;11.070;2023-07-16T00:52:02;23.60;99.90
4518;DHT22;2271;49.464;11.070;2023-07-16T00:54:30;23.50;99.90
4518;DHT22;2271;49.464;11.070;2023-07-16T00:56:56;23.50;99.90
4518;DHT22;2271;49.464;11.070;2023-07-16T00:59:22;23.60;99.90
4518;DHT22;2271;49.464;11.070;2023-07-16T01:01:47;23.60;99.90
4518;DHT22;2271;49.464;11.070;2023-07-16T01:04:13;23.60;99.90
4518;DHT22;2271;49.464;11.070;2023-07-16T01:06:41;23.60;99.90
4518;DHT22;2271;49.464;11.070;2023-07-16T01:09:10;23.60;99.90
4518;DHT22;2271;49.464;11.070;2023-07-16T01:11:40;23.50;99.90
4518;DHT22;2271;49.464;11.070;2023-07-16T01:14:08;23.50;99.90
4518;DHT22;2271;49.464;11.070;2023-07-16T01:16:33;23.50;99.90
4518;DHT22;2271;49.464;11.070;2023-07-16T01:18:59;23.50;99.90
4518;DHT22;2271;49.464;11.070;2023-07-16T01:21:30;23.60;99.90
4518;DHT22;2271;49.464;11.070;2023-07-16T01:24:11;23.50;99.90
4518;DHT22;2271;49.464;11.070;2023-07-16T01:27:21;23.50;99.90
4518;DHT22;2271;49.464;11.070;2023-07-16T01:30:02;23.40;99.90
4518;DHT22;2271;49.464;11.070;2023-07-16T01:32:30;23.40;99.90
4518;DHT22;2271;49.464;11.070;2023-07-16T01:34:57;23.20;99.90
4518;DHT22;2271;49.464;11.070;2023-07-16T01:37:23;23.10;99.90
4518;DHT22;2271;49.464;11.070;2023-07-16T01:39:49;23.10;99.90
4518;DHT22;2271;49.464;11.070;2023-07-16T01:42:15;23.10;99.90
4518;DHT22;2271;49.464;11.070;2023-07-16T01:44:40;23.10;99.90
4518;DHT22;2271;49.464;11.070;2023-07-16T01:49:47;23.10;99.90
4518;DHT22;2271;49.464;11.070;2023-07-16T01:52:13;23.10;99.90
4518;DHT22;2271;49.464;11.070;2023-07-16T01:54:38;23.10;99.90
4518;DHT22;2271;49.464;11.070;2023-07-16T01:57:04;23.00;99.90
4518;DHT22;2271;49.464;11.070;2023-07-16T01:59:30;23.00;99.90
4518;DHT22;2271;49.464;11.070;2023-07-16T02:01:56;22.90;99.90
4518;DHT22;2271;49.464;11.070;2023-07-16T02:04:21;22.90;99.90
4518;DHT22;2271;49.464;11.070;2023-07-16T02:06:47;22.90;99.90
4518;DHT22;2271;49.464;11.070;2023-07-16T02:09:16;22.80;99.90
4518;DHT22;2271;49.464;11.070;2023-07-16T02:11:41;22.70;99.90
4518;DHT22;2271;49.464;11.070;2023-07-16T02:14:07;22.70;99.90
4518;DHT22;2271;49.464;11.070;2023-07-16T02:16:32;22.60;99.90
4518;DHT22;2271;49.464;11.070;2023-07-16T02:18:58;22.60;99.90
4518;DHT22;2271;49.464;11.070;2023-07-16T02:21:24;22.60;99.90
4518;DHT22;2271;49.464;11.070;2023-07-16T02:23:49;22.60;99.90
4518;DHT22;2271;49.464;11.070;2023-07-16T02:26:15;22.50;99.90
4518;DHT22;2271;49.464;11.070;2023-07-16T02:28:40;22.50;99.90
4518;DHT22;2271;49.464;11.070;2023-07-16T02:31:06;22.50;99.90
4518;DHT22;2271;49.464;11.070;2023-07-16T02:33:32;22.50;99.90
4518;DHT22;2271;49.464;11.070;2023-07-16T02:35:57;22.50;99.90
4518;DHT22;2271;49.464;11.070;2023-07-16T02:38:23;22.40;99.90
4518;DHT22;2271;49.464;11.070;2023-07-16T02:40:48;22.40;99.90
4518;DHT22;2271;49.464;11.070;2023-07-16T02:43:14;22.30;99.90
4518;DHT22;2271;49.464;11.070;2023-07-16T02:45:40;22.30;99.90
4518;DHT22;2271;49.464;11.070;2023-07-16T02:48:06;22.10;99.90
4518;DHT22;2271;49.464;11.070;2023-07-16T02:50:36;22.10;99.90
4518;DHT22;2271;49.464;11.070;2023-07-16T02:53:04;22.20;99.90
4518;DHT22;2271;49.464;11.070;2023-07-16T02:55:30;22.20;99.90
4518;DHT22;2271;49.464;11.070;2023-07-16T02:57:56;22.30;99.90
4518;DHT22;2271;49.464;11.070;2023-07-16T03:00:22;22.30;99.90
4518;DHT22;2271;49.464;11.070;2023-07-16T03:02:47;22.40;99.90
4518;DHT22;2271;49.464;11.070;2023-07-16T03:05:16;22.40;99.90
4518;DHT22;2271;49.464;11.070;2023-07-16T03:07:41;22.40;99.90
4518;DHT22;2271;49.464;11.070;2023-07-16T03:10:07;22.30;99.90
4518;DHT22;2271;49.464;11.070;2023-07-16T03:12:33;22.40;99.90
4518;DHT22;2271;49.464;11.070;2023-07-16T03:14:58;22.30;99.90
4518;DHT22;2271;49.464;11.070;2023-07-16T03:17:24;22.30;99.90
4518;DHT22;2271;49.464;11.070;2023-07-16T03:19:50;22.30;99.90
4518;DHT22;2271;49.464;11.070;2023-07-16T03:22:15;22.40;99.90
4518;DHT22;2271;49.464;11.070;2023-07-16T03:24:41;22.40;99.90
4518;DHT22;2271;49.464;11.070;2023-07-16T03:27:07;22.50;99.90
4518;DHT22;2271;49.464;11.070;2023-07-16T03:29:33;22.50;99.90
4518;DHT22;2271;49.464;11.070;2023-07-16T03:31:59;22.40;99.90
4518;DHT22;2271;49.464;11.070;2023-07-16T03:34:25;22.40;99.90
4518;DHT22;2271;49.464;11.070;2023-07-16T03:36:50;22.40;99.90
4518;DHT22;2271;49.464;11.070;2023-07-16T03:39:16;22.40;99.90
4518;DHT22;2271;49.464;11.070;2023-07-16T03:41:42;22.40;99.90
4518;DHT22;2271;49.464;11.070;2023-07-16T03:44:08;22.40;99.90
4518;DHT22;2271;49.464;11.070;2023-07-16T03:46:33;22.40;99.90
4518;DHT22;2271;49.464;11.070;2023-07-16T03:48:59;22.40;99.90
4518;DHT22;2271;49.464;11.070;2023-07-16T03:51:25;22.30;99.90
4518;DHT22;2271;49.464;11.070;2023-07-16T03:53:50;22.40;99.90
4518;DHT22;2271;49.464;11.070;2023-07-16T03:56:16;22.40;99.90
4518;DHT22;2271;49.464;11.070;2023-07-16T03:58:41;22.50;99.90
4518;DHT22;2271;49.464;11.070;2023-07-16T04:01:07;22.50;99.90
4518;DHT22;2271;49.464;11.070;2023-07-16T04:03:33;22.40;99.90
4518;DHT22;2271;49.464;11.070;2023-07-16T04:06:05;22.50;99.90
4518;DHT22;2271;49.464;11.070;2023-07-16T04:08:32;22.50;99.90
4518;DHT22;2271;49.464;11.070;2023-07-16T04:10:58;22.40;99.90
4518;DHT22;2271;49.464;11.070;2023-07-16T04:13:23;22.40;99.90
4518;DHT22;2271;49.464;11.070;2023-07-16T04:15:49;22.40;99.90
4518;DHT22;2271;49.464;11.070;2023-07-16T04:18:15;22.40;99.90
4518;DHT22;2271;49.464;11.070;2023-07-16T04:20:40;22.40;99.90
4518;DHT22;2271;49.464;11.070;2023-07-16T04:23:06;22.40;99.90
4518;DHT22;2271;49.464;11.070;2023-07-16T04:25:31;22.30;99.90
4518;DHT22;2271;49.464;11.070;2023-07-16T04:27:57;22.20;99.90
4518;DHT22;2271;49.464;11.070;2023-07-16T04:30:23;22.20;99.90
4518;DHT22;2271;49.464;11.070;2023-07-16T04:32:49;22.20;99.90
4518;DHT22;2271;49.464;11.070;2023-07-16T04:35:14;22.20;99.90
4518;DHT22;2271;49.464;11.070;2023-07-16T04:37:40;22.10;99.90
4518;DHT22;2271;49.464;11.070;2023-07-16T04:40:06;22.10;99.90
4518;DHT22;2271;49.464;11.070;2023-07-16T04:42:32;22.10;99.90
4518;DHT22;2271;49.464;11.070;2023-07-16T04:44:57;22.10;99.90
4518;DHT22;2271;49.464;11.070;2023-07-16T04:47:23;22.10;99.90
4518;DHT22;2271;49.464;11.070;2023-07-16T04:49:49;22.10;99.90
4518;DHT22;2271;49.464;11.070;2023-07-16T04:52:14;22.00;99.90
4518;DHT22;2271;49.464;11.070;2023-07-16T04:54:40;22.00;99.90
4518;DHT22;2271;49.464;11.070;2023-07-16T04:57:06;22.00;99.90
4518;DHT22;2271;49.464;11.070;2023-07-16T04:59:33;22.00;99.90
4518;DHT22;2271;49.464;11.070;2023-07-16T05:01:59;22.10;99.90
4518;DHT22;2271;49.464;11.070;2023-07-16T05:04:24;22.20;99.90
4518;DHT22;2271;49.464;11.070;2023-07-16T05:06:51;22.10;99.90
4518;DHT22;2271;49.464;11.070;2023-07-16T05:09:17;22.10;99.90
4518;DHT22;2271;49.464;11.070;2023-07-16T05:11:42;22.20;99.90
4518;DHT22;2271;49.464;11.070;2023-07-16T05:14:08;22.20;99.90
4518;DHT22;2271;49.464;11.070;2023-07-16T05:16:33;22.20;99.90
4518;DHT22;2271;49.464;11.070;2023-07-16T05:18:59;22.20;99.90
4518;DHT22;2271;49.464;11.070;2023-07-16T05:21:24;22.20;99.90
4518;DHT22;2271;49.464;11.070;2023-07-16T05:23:50;22.20;99.90
4518;DHT22;2271;49.464;11.070;2023-07-16T05:26:16;22.10;99.90
4518;DHT22;2271;49.464;11.070;2023-07-16T05:28:41;22.10;99.90
4518;DHT22;2271;49.464;11.070;2023-07-16T05:31:07;22.10;99.90
4518;DHT22;2271;49.464;11.070;2023-07-16T05:33:32;22.10;99.90
4518;DHT22;2271;49.464;11.070;2023-07-16T05:35:58;22.10;99.90
4518;DHT22;2271;49.464;11.070;2023-07-16T05:38:23;22.00;99.90
4518;DHT22;2271;49.464;11.070;2023-07-16T05:40:49;22.50;99.90
4518;DHT22;2271;49.464;11.070;2023-07-16T05:43:15;22.70;99.90
4518;DHT22;2271;49.464;11.070;2023-07-16T05:45:41;22.90;99.90
4518;DHT22;2271;49.464;11.070;2023-07-16T05:48:06;23.00;99.90
4518;DHT22;2271;49.464;11.070;2023-07-16T05:50:32;23.10;99.90
4518;DHT22;2271;49.464;11.070;2023-07-16T05:52:58;23.10;99.90
4518;DHT22;2271;49.464;11.070;2023-07-16T05:55:23;22.90;99.90
4518;DHT22;2271;49.464;11.070;2023-07-16T05:57:49;22.90;99.90
4518;DHT22;2271;49.464;11.070;2023-07-16T06:00:15;22.90;99.90
4518;DHT22;2271;49.464;11.070;2023-07-16T06:02:41;23.10;99.90
4518;DHT22;2271;49.464;11.070;2023-07-16T06:05:07;23.30;99.90
4518;DHT22;2271;49.464;11.070;2023-07-16T06:07:32;23.30;99.90
4518;DHT22;2271;49.464;11.070;2023-07-16T06:09:58;23.30;99.90
4518;DHT22;2271;49.464;11.070;2023-07-16T06:12:24;23.30;99.90
4518;DHT22;2271;49.464;11.070;2023-07-16T06:14:50;23.20;99.90
4518;DHT22;2271;49.464;11.070;2023-07-16T06:17:15;23.30;99.90
4518;DHT22;2271;49.464;11.070;2023-07-16T06:19:42;23.40;99.90
4518;DHT22;2271;49.464;11.070;2023-07-16T06:22:08;23.30;99.90
4518;DHT22;2271;49.464;11.070;2023-07-16T06:24:34;23.30;99.90
4518;DHT22;2271;49.464;11.070;2023-07-16T06:27:00;23.30;99.90
4518;DHT22;2271;49.464;11.070;2023-07-16T06:29:26;23.20;99.90
4518;DHT22;2271;49.464;11.070;2023-07-16T06:31:55;23.20;99.90
4518;DHT22;2271;49.464;11.070;2023-07-16T06:34:22;23.10;99.90
4518;DHT22;2271;49.464;11.070;2023-07-16T06:36:48;23.00;99.90
4518;DHT22;2271;49.464;11.070;2023-07-16T06:39:13;23.10;99.90
4518;DHT22;2271;49.464;11.070;2023-07-16T06:41:39;23.00;99.90
4518;DHT22;2271;49.464;11.070;2023-07-16T06:44:04;23.10;99.90
4518;DHT22;2271;49.464;11.070;2023-07-16T06:46:30;23.10;99.90
4518;DHT22;2271;49.464;11.070;2023-07-16T06:48:56;23.00;99.90
4518;DHT22;2271;49.464;11.070;2023-07-16T06:51:21;22.80;99.90
4518;DHT22;2271;49.464;11.070;2023-07-16T06:53:47;22.90;99.90
4518;DHT22;2271;49.464;11.070;2023-07-16T06:56:13;23.30;99.90
4518;DHT22;2271;49.464;11.070;2023-07-16T06:58:38;23.60;99.90
4518;DHT22;2271;49.464;11.070;2023-07-16T07:01:04;23.90;99.90
4518;DHT22;2271;49.464;11.070;2023-07-16T07:03:29;24.20;99.90
4518;DHT22;2271;49.464;11.070;2023-07-16T07:05:55;24.40;99.90
4518;DHT22;2271;49.464;11.070;2023-07-16T07:08:20;24.40;99.90
4518;DHT22;2271;49.464;11.070;2023-07-16T07:10:48;24.20;99.90
4518;DHT22;2271;49.464;11.070;2023-07-16T07:13:14;24.00;99.90
4518;DHT22;2271;49.464;11.070;2023-07-16T07:15:42;23.80;99.90
4518;DHT22;2271;49.464;11.070;2023-07-16T07:18:07;23.60;99.90
4518;DHT22;2271;49.464;11.070;2023-07-16T07:20:33;23.60;99.90
4518;DHT22;2271;49.464;11.070;2023-07-16T07:22:59;23.50;99.90
4518;DHT22;2271;49.464;11.070;2023-07-16T07:25:27;23.50;99.90
4518;DHT22;2271;49.464;11.070;2023-07-16T07:27:53;23.40;99.90
4518;DHT22;2271;49.464;11.070;2023-07-16T07:30:19;23.30;99.90
4518;DHT22;2271;49.464;11.070;2023-07-16T07:32:45;23.20;99.90
4518;DHT22;2271;49.464;11.070;2023-07-16T07:35:11;23.20;99.90
4518;DHT22;2271;49.464;11.070;2023-07-16T07:37:36;23.30;99.90
4518;DHT22;2271;49.464;11.070;2023-07-16T07:40:03;23.30;99.90
4518;DHT22;2271;49.464;11.070;2023-07-16T07:42:29;23.30;99.90
4518;DHT22;2271;49.464;11.070;2023-07-16T07:44:55;23.40;99.90
4518;DHT22;2271;49.464;11.070;2023-07-16T07:47:21;23.50;99.90
4518;DHT22;2271;49.464;11.070;2023-07-16T07:49:46;23.40;99.90
4518;DHT22;2271;49.464;11.070;2023-07-16T07:52:12;23.40;99.90
4518;DHT22;2271;49.464;11.070;2023-07-16T07:54:38;23.30;99.90
4518;DHT22;2271;49.464;11.070;2023-07-16T07:57:04;23.30;99.90
4518;DHT22;2271;49.464;11.070;2023-07-16T07:59:30;23.40;99.90
4518;DHT22;2271;49.464;11.070;2023-07-16T08:01:59;23.50;99.90
4518;DHT22;2271;49.464;11.070;2023-07-16T08:04:27;23.50;99.90
4518;DHT22;2271;49.464;11.070;2023-07-16T08:06:54;23.60;99.90
4518;DHT22;2271;49.464;11.070;2023-07-16T08:09:19;23.50;99.90
4518;DHT22;2271;49.464;11.070;2023-07-16T08:11:45;23.50;99.90
4518;DHT22;2271;49.464;11.070;2023-07-16T08:14:11;23.40;99.90
4518;DHT22;2271;49.464;11.070;2023-07-16T08:16:36;23.30;99.90
4518;DHT22;2271;49.464;11.070;2023-07-16T08:19:02;23.30;99.90
4518;DHT22;2271;49.464;11.070;2023-07-16T08:21:28;23.20;99.90
4518;DHT22;2271;49.464;11.070;2023-07-16T08:23:53;23.10;99.90
4518;DHT22;2271;49.464;11.070;2023-07-16T08:26:19;22.90;99.90
4518;DHT22;2271;49.464;11.070;2023-07-16T08:28:45;23.00;99.90
4518;DHT22;2271;49.464;11.070;2023-07-16T08:31:11;23.20;99.90
4518;DHT22;2271;49.464;11.070;2023-07-16T08:33:38;23.50;99.90
4518;DHT22;2271;49.464;11.070;2023-07-16T08:36:04;23.60;99.90
4518;DHT22;2271;49.464;11.070;2023-07-16T08:38:30;23.60;99.90
4518;DHT22;2271;49.464;11.070;2023-07-16T08:40:55;23.50;99.90
4518;DHT22;2271;49.464;11.070;2023-07-16T08:43:21;23.50;99.90
4518;DHT22;2271;49.464;11.070;2023-07-16T08:45:48;23.30;99.90
4518;DHT22;2271;49.464;11.070;2023-07-16T08:48:16;23.20;99.90
4518;DHT22;2271;49.464;11.070;2023-07-16T08:50:48;23.10;99.90
4518;DHT22;2271;49.464;11.070;2023-07-16T08:53:18;22.90;99.90
4518;DHT22;2271;49.464;11.070;2023-07-16T08:55:47;23.00;99.90
4518;DHT22;2271;49.464;11.070;2023-07-16T08:58:14;23.10;99.90
4518;DHT22;2271;49.464;11.070;2023-07-16T09:00:42;23.20;99.90
4518;DHT22;2271;49.464;11.070;2023-07-16T09:03:14;23.20;99.90
4518;DHT22;2271;49.464;11.070;2023-07-16T09:05:42;23.30;99.90
4518;DHT22;2271;49.464;11.070;2023-07-16T09:08:09;23.20;99.90
4518;DHT22;2271;49.464;11.070;2023-07-16T09:10:35;23.40;99.90
4518;DHT22;2271;49.464;11.070;2023-07-16T09:13:01;23.50;99.90
4518;DHT22;2271;49.464;11.070;2023-07-16T09:15:28;23.60;99.90
4518;DHT22;2271;49.464;11.070;2023-07-16T09:17:55;23.60;99.90
4518;DHT22;2271;49.464;11.070;2023-07-16T09:20:21;24.00;99.90
4518;DHT22;2271;49.464;11.070;2023-07-16T09:22:49;24.00;99.90
4518;DHT22;2271;49.464;11.070;2023-07-16T09:25:15;24.40;99.90
4518;DHT22;2271;49.464;11.070;2023-07-16T09:27:41;24.60;99.90
4518;DHT22;2271;49.464;11.070;2023-07-16T09:30:13;24.70;99.90
4518;DHT22;2271;49.464;11.070;2023-07-16T09:32:40;24.80;99.90
4518;DHT22;2271;49.464;11.070;2023-07-16T09:35:16;25.10;99.90
4518;DHT22;2271;49.464;11.070;2023-07-16T09:37:42;25.30;99.90
4518;DHT22;2271;49.464;11.070;2023-07-16T09:40:10;25.50;99.90
4518;DHT22;2271;49.464;11.070;2023-07-16T09:42:40;25.60;99.90
4518;DHT22;2271;49.464;11.070;2023-07-16T09:45:07;25.70;99.90
4518;DHT22;2271;49.464;11.070;2023-07-16T09:47:35;26.00;99.90
4518;DHT22;2271;49.464;11.070;2023-07-16T09:50:01;26.20;99.90
4518;DHT22;2271;49.464;11.070;2023-07-16T09:52:27;26.20;99.90
4518;DHT22;2271;49.464;11.070;2023-07-16T09:54:55;26.10;99.90
4518;DHT22;2271;49.464;11.070;2023-07-16T09:57:23;26.10;99.90
4518;DHT22;2271;49.464;11.070;2023-07-16T09:59:50;25.90;99.90
4518;DHT22;2271;49.464;11.070;2023-07-16T10:02:18;26.00;99.90
4518;DHT22;2271;49.464;11.070;2023-07-16T10:04:45;26.10;99.90
4518;DHT22;2271;49.464;11.070;2023-07-16T10:07:21;25.90;99.90
4518;DHT22;2271;49.464;11.070;2023-07-16T10:12:19;25.80;99.90
4518;DHT22;2271;49.464;11.070;2023-07-16T10:14:50;25.70;99.90
4518;DHT22;2271;49.464;11.070;2023-07-16T10:17:21;25.90;99.90
4518;DHT22;2271;49.464;11.070;2023-07-16T10:20:02;26.10;99.90
4518;DHT22;2271;49.464;11.070;2023-07-16T10:22:45;26.50;99.90
4518;DHT22;2271;49.464;11.070;2023-07-16T10:27:44;26.00;99.90
4518;DHT22;2271;49.464;11.070;2023-07-16T10:30:10;25.90;99.90
4518;DHT22;2271;49.464;11.070;2023-07-16T10:32:36;25.80;99.90
4518;DHT22;2271;49.464;11.070;2023-07-16T10:35:03;25.70;99.90
4518;DHT22;2271;49.464;11.070;2023-07-16T10:37:29;25.60;99.90
4518;DHT22;2271;49.464;11.070;2023-07-16T10:39:56;25.60;99.90
4518;DHT22;2271;49.464;11.070;2023-07-16T10:42:23;25.60;99.90
4518;DHT22;2271;49.464;11.070;2023-07-16T10:44:57;25.90;99.90
4518;DHT22;2271;49.464;11.070;2023-07-16T10:47:24;26.30;99.90
4518;DHT22;2271;49.464;11.070;2023-07-16T10:49:51;26.90;99.90
4518;DHT22;2271;49.464;11.070;2023-07-16T10:52:23;27.20;99.90
4518;DHT22;2271;49.464;11.070;2023-07-16T10:54:50;27.20;99.90
4518;DHT22;2271;49.464;11.070;2023-07-16T10:57:17;27.00;99.90
4518;DHT22;2271;49.464;11.070;2023-07-16T10:59:45;26.60;99.90
4518;DHT22;2271;49.464;11.070;2023-07-16T11:02:12;26.40;99.90
4518;DHT22;2271;49.464;11.070;2023-07-16T11:04:38;26.40;99.90
4518;DHT22;2271;49.464;11.070;2023-07-16T11:07:08;26.40;99.90
4518;DHT22;2271;49.464;11.070;2023-07-16T11:09:35;26.40;99.90
4518;DHT22;2271;49.464;11.070;2023-07-16T11:12:31;26.50;99.90
4518;DHT22;2271;49.464;11.070;2023-07-16T11:14:56;26.90;99.90
4518;DHT22;2271;49.464;11.070;2023-07-16T11:17:24;27.20;99.90
4518;DHT22;2271;49.464;11.070;2023-07-16T11:19:51;27.10;99.90
4518;DHT22;2271;49.464;11.070;2023-07-16T11:22:17;27.00;99.90
4518;DHT22;2271;49.464;11.070;2023-07-16T11:27:15;27.00;99.90
4518;DHT22;2271;49.464;11.070;2023-07-16T11:29:47;26.90;99.90
4518;DHT22;2271;49.464;11.070;2023-07-16T11:32:34;26.80;99.90
4518;DHT22;2271;49.464;11.070;2023-07-16T11:35:02;26.90;99.90
4518;DHT22;2271;49.464;11.070;2023-07-16T11:37:30;26.90;99.90
4518;DHT22;2271;49.464;11.070;2023-07-16T11:39:58;26.90;99.90
4518;DHT22;2271;49.464;11.070;2023-07-16T11:42:44;26.80;99.90
4518;DHT22;2271;49.464;11.070;2023-07-16T11:45:22;26.60;99.90
4518;DHT22;2271;49.464;11.070;2023-07-16T11:47:49;26.60;99.90
4518;DHT22;2271;49.464;11.070;2023-07-16T11:50:14;26.50;99.90
4518;DHT22;2271;49.464;11.070;2023-07-16T11:52:41;26.50;99.90
4518;DHT22;2271;49.464;11.070;2023-07-16T11:55:07;26.50;99.90
4518;DHT22;2271;49.464;11.070;2023-07-16T11:57:33;26.60;99.90
4518;DHT22;2271;49.464;11.070;2023-07-16T11:59:59;26.80;99.90
4518;DHT22;2271;49.464;11.070;2023-07-16T12:02:26;27.20;99.90
4518;DHT22;2271;49.464;11.070;2023-07-16T12:04:52;27.50;99.90
4518;DHT22;2271;49.464;11.070;2023-07-16T12:07:36;27.50;99.90
4518;DHT22;2271;49.464;11.070;2023-07-16T12:10:03;27.20;99.90
4518;DHT22;2271;49.464;11.070;2023-07-16T12:12:29;27.30;99.90
4518;DHT22;2271;49.464;11.070;2023-07-16T12:14:55;27.50;99.90
4518;DHT22;2271;49.464;11.070;2023-07-16T12:17:20;27.80;99.90
4518;DHT22;2271;49.464;11.070;2023-07-16T12:19:46;27.90;99.90
4518;DHT22;2271;49.464;11.070;2023-07-16T12:22:12;27.80;99.90
4518;DHT22;2271;49.464;11.070;2023-07-16T12:24:37;27.60;99.90
4518;DHT22;2271;49.464;11.070;2023-07-16T12:27:03;27.40;99.90
4518;DHT22;2271;49.464;11.070;2023-07-16T12:29:29;27.40;99.90
4518;DHT22;2271;49.464;11.070;2023-07-16T12:31:54;27.40;99.90
4518;DHT22;2271;49.464;11.070;2023-07-16T12:34:20;27.40;99.90
4518;DHT22;2271;49.464;11.070;2023-07-16T12:36:46;27.30;99.90
4518;DHT22;2271;49.464;11.070;2023-07-16T12:39:11;27.30;99.90
4518;DHT22;2271;49.464;11.070;2023-07-16T12:41:37;27.50;99.90
4518;DHT22;2271;49.464;11.070;2023-07-16T12:44:02;27.70;99.90
4518;DHT22;2271;49.464;11.070;2023-07-16T12:46:28;27.70;99.90
4518;DHT22;2271;49.464;11.070;2023-07-16T12:48:54;27.50;99.90
4518;DHT22;2271;49.464;11.070;2023-07-16T12:51:19;27.60;99.90
4518;DHT22;2271;49.464;11.070;2023-07-16T12:53:45;27.60;99.90
4518;DHT22;2271;49.464;11.070;2023-07-16T12:56:11;27.60;99.90
4518;DHT22;2271;49.464;11.070;2023-07-16T12:58:37;27.60;99.90
4518;DHT22;2271;49.464;11.070;2023-07-16T13:01:03;27.70;99.90
4518;DHT22;2271;49.464;11.070;2023-07-16T13:03:28;27.70;99.90
4518;DHT22;2271;49.464;11.070;2023-07-16T13:05:54;27.70;99.90
4518;DHT22;2271;49.464;11.070;2023-07-16T13:08:19;27.70;99.90
4518;DHT22;2271;49.464;11.070;2023-07-16T13:10:45;27.70;99.90
4518;DHT22;2271;49.464;11.070;2023-07-16T13:13:11;27.80;99.90
4518;DHT22;2271;49.464;11.070;2023-07-16T13:15:36;27.80;99.90
4518;DHT22;2271;49.464;11.070;2023-07-16T13:18:02;27.80;99.90
4518;DHT22;2271;49.464;11.070;2023-07-16T13:20:28;27.90;99.90
4518;DHT22;2271;49.464;11.070;2023-07-16T13:22:55;28.00;99.90
4518;DHT22;2271;49.464;11.070;2023-07-16T13:25:21;28.00;99.90
4518;DHT22;2271;49.464;11.070;2023-07-16T13:27:46;28.00;99.90
4518;DHT22;2271;49.464;11.070;2023-07-16T13:30:14;28.20;99.90
4518;DHT22;2271;49.464;11.070;2023-07-16T13:32:40;28.20;99.90
4518;DHT22;2271;49.464;11.070;2023-07-16T13:35:06;28.00;99.90
4518;DHT22;2271;49.464;11.070;2023-07-16T13:37:31;27.90;99.90
4518;DHT22;2271;49.464;11.070;2023-07-16T13:39:57;27.90;99.90
4518;DHT22;2271;49.464;11.070;2023-07-16T13:42:23;27.80;99.90
4518;DHT22;2271;49.464;11.070;2023-07-16T13:44:48;27.70;99.90
4518;DHT22;2271;49.464;11.070;2023-07-16T13:47:14;27.60;99.90
4518;DHT22;2271;49.464;11.070;2023-07-16T13:49:39;27.40;99.90
4518;DHT22;2271;49.464;11.070;2023-07-16T13:52:06;27.40;99.90
4518;DHT22;2271;49.464;11.070;2023-07-16T13:54:32;27.20;99.90
4518;DHT22;2271;49.464;11.070;2023-07-16T13:56:57;27.20;99.90
4518;DHT22;2271;49.464;11.070;2023-07-16T13:59:24;27.20;99.90
4518;DHT22;2271;49.464;11.070;2023-07-16T14:01:59;27.10;99.90
4518;DHT22;2271;49.464;11.070;2023-07-16T14:04:26;27.10;99.90
4518;DHT22;2271;49.464;11.070;2023-07-16T14:06:51;27.00;99.90
4518;DHT22;2271;49.464;11.070;2023-07-16T14:09:18;27.00;99.90
4518;DHT22;2271;49.464;11.070;2023-07-16T14:11:45;26.90;99.90
4518;DHT22;2271;49.464;11.070;2023-07-16T14:14:13;26.90;99.90
4518;DHT22;2271;49.464;11.070;2023-07-16T14:16:39;27.00;99.90
4518;DHT22;2271;49.464;11.070;2023-07-16T14:19:04;26.90;99.90
4518;DHT22;2271;49.464;11.070;2023-07-16T14:21:30;26.90;99.90
4518;DHT22;2271;49.464;11.070;2023-07-16T14:23:56;26.70;99.90
4518;DHT22;2271;49.464;11.070;2023-07-16T14:26:21;26.60;99.90
4518;DHT22;2271;49.464;11.070;2023-07-16T14:28:47;26.70;99.90
4518;DHT22;2271;49.464;11.070;2023-07-16T14:31:13;26.60;99.90
4518;DHT22;2271;49.464;11.070;2023-07-16T14:33:38;26.60;99.90
4518;DHT22;2271;49.464;11.070;2023-07-16T14:36:04;26.70;99.90
4518;DHT22;2271;49.464;11.070;2023-07-16T14:38:30;26.80;99.90
4518;DHT22;2271;49.464;11.070;2023-07-16T14:40:56;26.80;99.90
4518;DHT22;2271;49.464;11.070;2023-07-16T14:43:21;26.80;99.90
4518;DHT22;2271;49.464;11.070;2023-07-16T14:45:47;26.70;99.90
4518;DHT22;2271;49.464;11.070;2023-07-16T14:48:13;26.80;99.90
4518;DHT22;2271;49.464;11.070;2023-07-16T14:50:39;26.90;99.90
4518;DHT22;2271;49.464;11.070;2023-07-16T14:53:05;26.90;99.90
4518;DHT22;2271;49.464;11.070;2023-07-16T14:55:31;26.90;99.90
4518;DHT22;2271;49.464;11.070;2023-07-16T14:57:56;26.90;99.90
4518;DHT22;2271;49.464;11.070;2023-07-16T15:00:23;26.90;99.90
4518;DHT22;2271;49.464;11.070;2023-07-16T15:02:49;26.90;99.90
4518;DHT22;2271;49.464;11.070;2023-07-16T15:05:15;26.70;99.90
4518;DHT22;2271;49.464;11.070;2023-07-16T15:07:40;26.80;99.90
4518;DHT22;2271;49.464;11.070;2023-07-16T15:10:08;26.80;99.90
4518;DHT22;2271;49.464;11.070;2023-07-16T15:12:34;26.80;99.90
4518;DHT22;2271;49.464;11.070;2023-07-16T15:14:59;26.80;99.90
4518;DHT22;2271;49.464;11.070;2023-07-16T15:17:25;26.80;99.90
4518;DHT22;2271;49.464;11.070;2023-07-16T15:19:54;26.80;99.90
4518;DHT22;2271;49.464;11.070;2023-07-16T15:22:19;26.80;99.90
4518;DHT22;2271;49.464;11.070;2023-07-16T15:24:49;26.80;99.90
4518;DHT22;2271;49.464;11.070;2023-07-16T15:27:16;26.90;99.90
4518;DHT22;2271;49.464;11.070;2023-07-16T15:29:41;27.00;99.90
4518;DHT22;2271;49.464;11.070;2023-07-16T15:32:07;27.10;99.90
4518;DHT22;2271;49.464;11.070;2023-07-16T15:34:33;27.10;99.90
4518;DHT22;2271;49.464;11.070;2023-07-16T15:36:59;27.10;99.90
4518;DHT22;2271;49.464;11.070;2023-07-16T15:39:24;27.20;99.90
4518;DHT22;2271;49.464;11.070;2023-07-16T15:41:50;27.20;99.90
4518;DHT22;2271;49.464;11.070;2023-07-16T15:44:16;27.20;99.90
4518;DHT22;2271;49.464;11.070;2023-07-16T15:46:42;27.10;99.90
4518;DHT22;2271;49.464;11.070;2023-07-16T15:49:08;27.10;99.90
4518;DHT22;2271;49.464;11.070;2023-07-16T15:51:33;27.10;99.90